Terminal Aerodrome Forecast
Issued by NWS Blacksburg, VA

Current Version | Previous Version | Text Only | Print | Product List | Glossary Off
Versions: 1 2 3 4 5 6 7 8 9 10 11 12 13 14 15 16 17 18 19 20 21 22

000
FTUS41 KRNK 052002 AAA
TAFBLF
TAF AMD
KBLF 052002Z 0520/0618 30009KT 5SM -SHRA BR OVC009
     FM052200 31008KT 5SM -SHRA BR OVC004
     FM060000 30008KT 3SM SHRA BR SCT004 OVC012
     FM060300 30007KT 4SM -SHRA BR OVC003
     FM061200 31009KT P6SM OVC007
     FM061400 33010G18KT P6SM OVC010=

USA.gov is the U.S. government's official web portal to all federal, state and local government web resources and services.